Time;durP1;ratioP1;P1;durP2;ratioP2;P2;SDS_P1;SDS_P2;PMS_P1;PMS_P2;Temp;Humidity;BMP_temperature;BMP_pressure;BME280_temperature;BME280_humidity;BME280_pressure;Samples;Min_cycle;Max_cycle;Signal;HPM_P1;HPM_P2
2021/04/24 00:01:50;;;;;;;15.67;10.07;;;7.20;1.00;;;;;;5071558;28;20191;-57
2021/04/24 00:04:16;;;;;;;12.40;9.63;;;7.20;1.00;;;;;;5072610;28;20190;-59
2021/04/24 00:06:41;;;;;;;14.47;10.10;;;7.20;1.00;;;;;;5051841;28;20191;-58
2021/04/24 00:09:07;;;;;;;13.47;10.37;;;7.20;1.00;;;;;;5070387;28;20609;-58
2021/04/24 00:11:34;;;;;;;21.43;10.90;;;7.20;1.00;;;;;;5068969;28;20287;-59
2021/04/24 00:14:00;;;;;;;18.20;10.90;;;7.20;1.00;;;;;;5071550;28;20441;-58
2021/04/24 00:16:26;;;;;;;18.07;10.80;;;7.20;1.00;;;;;;5069452;28;20469;-59
2021/04/24 00:18:52;;;;;;;16.37;10.87;;;7.20;1.00;;;;;;5078745;28;20447;-58
2021/04/24 00:21:18;;;;;;;17.20;10.77;;;7.20;1.00;;;;;;5071920;28;20207;-59
2021/04/24 00:23:44;;;;;;;18.03;11.27;;;7.20;1.00;;;;;;5071086;28;20472;-58
2021/04/24 00:26:09;;;;;;;16.30;10.03;;;7.10;1.00;;;;;;5070634;28;20527;-58
2021/04/24 00:28:35;;;;;;;14.17;10.67;;;7.20;1.00;;;;;;5069089;28;20680;-57
2021/04/24 00:31:01;;;;;;;16.83;11.70;;;7.10;1.00;;;;;;5072880;28;20592;-59
2021/04/24 00:33:26;;;;;;;16.97;10.57;;;7.10;1.00;;;;;;5068697;28;20189;-58
2021/04/24 00:35:53;;;;;;;14.63;10.33;;;7.10;1.00;;;;;;5069856;28;20214;-58
2021/04/24 00:38:19;;;;;;;17.90;10.83;;;7.10;1.00;;;;;;5071180;28;20573;-58
2021/04/24 00:40:45;;;;;;;13.47;10.23;;;7.00;1.00;;;;;;5070548;28;20449;-60
2021/04/24 00:43:13;;;;;;;12.37;10.27;;;7.00;1.00;;;;;;5069777;28;20445;-59
2021/04/24 00:45:39;;;;;;;20.97;10.67;;;6.90;1.00;;;;;;5069258;28;20457;-59
2021/04/24 00:48:05;;;;;;;12.77;10.37;;;6.90;1.00;;;;;;5067594;28;20450;-59
2021/04/24 00:50:33;;;;;;;18.30;10.50;;;6.90;1.00;;;;;;5065394;28;20222;-58
2021/04/24 00:52:59;;;;;;;14.60;10.03;;;6.80;1.00;;;;;;5071022;28;20430;-60
2021/04/24 00:55:25;;;;;;;18.87;10.53;;;6.80;1.00;;;;;;5069227;28;20527;-58
2021/04/24 00:57:51;;;;;;;17.37;11.30;;;6.80;1.00;;;;;;5065342;28;20454;-58
2021/04/24 01:00:17;;;;;;;14.13;10.87;;;6.80;1.00;;;;;;5068350;28;20429;-58
2021/04/24 01:02:43;;;;;;;12.53;10.33;;;6.70;1.00;;;;;;5065252;28;20536;-58
2021/04/24 01:05:18;;;;;;;16.53;11.37;;;6.70;1.00;;;;;;5070803;28;20517;-59
2021/04/24 01:07:44;;;;;;;17.00;10.67;;;6.70;1.00;;;;;;5069746;28;20191;-58
2021/04/24 01:10:11;;;;;;;18.10;11.07;;;6.60;1.00;;;;;;5066216;28;21041;-59
2021/04/24 01:12:37;;;;;;;20.27;11.33;;;6.60;1.00;;;;;;5070412;28;20791;-58
2021/04/24 01:15:05;;;;;;;14.20;10.50;;;6.60;1.00;;;;;;5070003;28;20453;-58
2021/04/24 01:17:30;;;;;;;14.80;11.30;;;6.60;1.00;;;;;;5068501;28;20448;-58
2021/04/24 01:19:56;;;;;;;13.93;10.73;;;6.60;1.00;;;;;;5068029;28;20434;-59
2021/04/24 01:22:22;;;;;;;18.67;12.57;;;6.60;1.00;;;;;;5068673;28;20187;-58
2021/04/24 01:24:49;;;;;;;14.30;9.87;;;6.50;1.00;;;;;;5068726;28;20494;-58
2021/04/24 01:27:14;;;;;;;14.93;9.73;;;6.50;1.00;;;;;;5067731;28;20445;-58
2021/04/24 01:29:41;;;;;;;18.33;10.47;;;6.50;1.00;;;;;;5067029;28;20495;-58
2021/04/24 01:32:07;;;;;;;15.43;10.60;;;6.50;1.00;;;;;;5065922;28;20198;-59
2021/04/24 01:34:33;;;;;;;19.27;11.03;;;6.50;1.00;;;;;;5068424;28;20507;-58
2021/04/24 01:37:00;;;;;;;18.20;11.50;;;6.40;1.00;;;;;;5070417;28;21018;-58
2021/04/24 01:39:27;;;;;;;13.00;10.97;;;6.40;1.00;;;;;;5069139;28;20224;-59
2021/04/24 01:41:53;;;;;;;14.90;10.27;;;6.40;1.00;;;;;;5069365;28;20831;-59
2021/04/24 01:44:19;;;;;;;16.67;10.77;;;6.30;1.00;;;;;;5070421;28;20510;-58
2021/04/24 01:46:45;;;;;;;12.97;9.57;;;6.40;1.00;;;;;;5063470;28;20223;-58
2021/04/24 01:49:11;;;;;;;15.67;11.53;;;6.40;1.00;;;;;;5070207;28;20746;-58
2021/04/24 01:51:36;;;;;;;16.50;10.30;;;6.30;1.00;;;;;;5069519;28;20182;-58
2021/04/24 01:54:04;;;;;;;13.87;10.67;;;6.30;1.00;;;;;;5070096;28;20236;-58
2021/04/24 01:56:54;;;;;;;15.63;11.17;;;6.30;1.00;;;;;;5066546;28;20603;-59
2021/04/24 01:59:22;;;;;;;15.87;11.63;;;6.20;1.00;;;;;;5068228;28;20460;-58
2021/04/24 02:01:51;;;;;;;16.47;11.93;;;6.30;1.00;;;;;;5066722;28;20532;-58
2021/04/24 02:04:18;;;;;;;13.80;10.63;;;6.10;1.00;;;;;;5069527;28;20441;-58
2021/04/24 02:06:45;;;;;;;15.53;11.20;;;6.10;1.00;;;;;;5068313;28;20450;-58
2021/04/24 02:09:12;;;;;;;16.93;10.50;;;6.10;1.00;;;;;;5068530;28;20457;-58
2021/04/24 02:12:09;;;;;;;13.10;9.90;;;6.00;1.00;;;;;;5063174;28;20800;-58
2021/04/24 02:14:42;;;;;;;14.83;10.33;;;6.10;1.00;;;;;;5069799;28;20469;-58
2021/04/24 02:17:13;;;;;;;16.03;10.43;;;6.10;1.00;;;;;;5070289;28;20986;-59
2021/04/24 02:19:41;;;;;;;16.70;11.33;;;6.00;1.00;;;;;;5067969;28;20808;-57
2021/04/24 02:22:08;;;;;;;13.10;10.00;;;5.90;1.00;;;;;;5068964;28;20469;-58
2021/04/24 02:24:39;;;;;;;17.03;12.50;;;5.90;1.00;;;;;;5068407;28;20484;-58
2021/04/24 02:27:07;;;;;;;17.47;11.30;;;6.00;1.00;;;;;;5064582;28;20503;-59
2021/04/24 02:29:33;;;;;;;15.17;10.83;;;5.90;1.00;;;;;;5069647;28;20524;-58
2021/04/24 02:31:58;;;;;;;22.10;11.80;;;5.90;1.00;;;;;;5068642;28;20438;-58
2021/04/24 02:34:24;;;;;;;20.93;10.93;;;5.90;1.00;;;;;;5066101;28;20270;-58
2021/04/24 02:36:49;;;;;;;17.10;11.83;;;5.90;1.00;;;;;;5067493;28;20696;-60
2021/04/24 02:39:15;;;;;;;16.90;10.80;;;6.00;1.00;;;;;;5069662;28;20171;-58
2021/04/24 02:41:40;;;;;;;16.40;11.00;;;6.00;1.00;;;;;;5068075;28;20201;-57
2021/04/24 02:44:06;;;;;;;16.63;11.50;;;6.10;1.00;;;;;;5069110;28;21177;-58
2021/04/24 02:46:32;;;;;;;14.33;10.90;;;6.10;1.00;;;;;;5069470;28;20187;-59
2021/04/24 02:48:57;;;;;;;15.47;10.83;;;6.10;1.00;;;;;;5067373;28;20270;-57
2021/04/24 02:51:23;;;;;;;14.60;11.17;;;6.10;1.00;;;;;;5066086;28;20582;-57
2021/04/24 02:53:48;;;;;;;13.70;10.30;;;6.00;1.00;;;;;;5066900;28;20183;-58
2021/04/24 02:56:14;;;;;;;18.83;11.60;;;5.90;1.00;;;;;;5069771;28;20234;-58
2021/04/24 02:58:40;;;;;;;16.40;9.93;;;6.00;1.00;;;;;;5069736;28;20184;-59
2021/04/24 03:01:07;;;;;;;14.37;11.53;;;6.10;1.00;;;;;;5064495;28;20179;-58
2021/04/24 03:03:32;;;;;;;19.23;11.20;;;6.00;1.00;;;;;;5079357;28;20441;-57
2021/04/24 03:05:58;;;;;;;13.23;10.17;;;6.00;1.00;;;;;;5068394;28;20450;-59
2021/04/24 03:08:23;;;;;;;14.20;10.73;;;6.00;1.00;;;;;;5067826;28;20187;-57
2021/04/24 03:10:49;;;;;;;15.40;10.50;;;5.90;1.00;;;;;;5064415;28;20661;-58
2021/04/24 03:13:15;;;;;;;11.30;9.50;;;5.90;1.00;;;;;;5064493;28;20195;-58
2021/04/24 03:15:41;;;;;;;19.83;10.83;;;6.00;1.00;;;;;;5071534;28;20485;-58
2021/04/24 03:18:06;;;;;;;14.50;10.70;;;6.00;1.00;;;;;;5084285;28;20550;-59
2021/04/24 03:20:32;;;;;;;10.17;9.10;;;6.00;1.00;;;;;;5070597;28;20184;-59
2021/04/24 03:22:59;;;;;;;16.73;10.23;;;6.10;1.00;;;;;;5068996;28;20685;-58
2021/04/24 03:25:26;;;;;;;13.27;10.27;;;6.00;1.00;;;;;;5072490;28;20241;-58
2021/04/24 03:27:51;;;;;;;17.10;10.93;;;6.10;1.00;;;;;;5077163;28;20556;-58
2021/04/24 03:30:17;;;;;;;13.20;10.13;;;6.00;1.00;;;;;;5083067;28;21028;-58
2021/04/24 03:32:43;;;;;;;13.07;10.70;;;6.00;1.00;;;;;;5088437;28;20179;-58
2021/04/24 03:35:09;;;;;;;18.10;11.63;;;6.00;1.00;;;;;;5070018;28;20536;-58
2021/04/24 03:37:35;;;;;;;12.90;9.67;;;5.90;1.00;;;;;;5070147;28;20297;-58
2021/04/24 03:40:02;;;;;;;19.37;10.93;;;5.90;1.00;;;;;;5071571;28;21006;-58
2021/04/24 03:42:28;;;;;;;12.20;9.23;;;5.90;1.00;;;;;;5071547;28;20540;-58
2021/04/24 03:44:54;;;;;;;14.73;9.43;;;5.90;1.00;;;;;;5072102;28;20433;-58
2021/04/24 03:47:19;;;;;;;14.77;11.03;;;5.90;1.00;;;;;;5075332;28;20436;-58
2021/04/24 03:49:45;;;;;;;14.70;10.53;;;5.90;1.00;;;;;;5074180;28;20277;-58
2021/04/24 03:52:10;;;;;;;12.77;10.70;;;5.90;1.00;;;;;;5069326;28;20680;-58
2021/04/24 03:54:36;;;;;;;16.27;11.67;;;5.80;1.00;;;;;;5071853;28;20203;-57
2021/04/24 03:57:03;;;;;;;16.70;10.07;;;5.80;1.00;;;;;;5072451;28;20203;-58
2021/04/24 03:59:28;;;;;;;19.90;10.90;;;5.80;1.00;;;;;;5070886;28;20283;-57
2021/04/24 04:01:54;;;;;;;16.73;10.93;;;5.70;1.00;;;;;;5070542;28;20533;-57
2021/04/24 04:04:21;;;;;;;14.50;9.70;;;5.70;1.00;;;;;;5071153;28;20279;-59
2021/04/24 04:06:46;;;;;;;18.03;11.90;;;5.70;1.00;;;;;;5068380;28;20664;-57
2021/04/24 04:09:12;;;;;;;17.00;10.77;;;5.70;1.00;;;;;;5069566;28;20512;-58
2021/04/24 04:11:38;;;;;;;15.50;10.77;;;5.70;1.00;;;;;;5069109;28;20234;-57
2021/04/24 04:14:04;;;;;;;15.77;10.10;;;5.70;1.00;;;;;;5071116;28;20476;-60
2021/04/24 04:16:29;;;;;;;19.37;10.60;;;5.70;1.00;;;;;;5069352;28;20206;-58
2021/04/24 04:18:55;;;;;;;15.30;10.70;;;5.80;1.00;;;;;;5066284;28;20195;-58
2021/04/24 04:21:20;;;;;;;16.53;11.00;;;5.80;1.00;;;;;;5071841;28;20210;-58
2021/04/24 04:23:46;;;;;;;13.57;10.00;;;6.00;1.00;;;;;;5069222;28;20217;-58
2021/04/24 04:26:11;;;;;;;13.80;10.00;;;5.90;1.00;;;;;;5072000;28;20186;-58
2021/04/24 04:28:37;;;;;;;15.33;10.87;;;6.10;1.00;;;;;;5067776;28;20226;-58
2021/04/24 04:31:03;;;;;;;12.63;9.87;;;6.20;1.00;;;;;;5073724;28;20192;-59
2021/04/24 04:33:29;;;;;;;11.97;9.10;;;6.20;1.00;;;;;;5076850;28;20624;-59
2021/04/24 04:35:55;;;;;;;14.13;9.97;;;6.30;1.00;;;;;;5082268;28;20675;-59
2021/04/24 04:38:21;;;;;;;13.93;10.13;;;6.40;1.00;;;;;;5076591;28;20448;-58
2021/04/24 04:40:47;;;;;;;16.10;10.03;;;6.60;1.00;;;;;;5072220;28;20252;-58
2021/04/24 04:43:13;;;;;;;15.07;10.33;;;6.60;1.00;;;;;;5069453;28;20449;-59
2021/04/24 04:45:39;;;;;;;11.57;9.70;;;6.60;1.00;;;;;;5071221;28;20211;-57
2021/04/24 04:48:06;;;;;;;11.87;8.37;;;6.70;1.00;;;;;;5074555;28;20870;-59
2021/04/24 04:50:34;;;;;;;16.77;10.13;;;6.80;1.00;;;;;;5068413;28;20503;-59
2021/04/24 04:53:00;;;;;;;13.93;9.20;;;6.80;1.00;;;;;;5070507;28;20939;-59
2021/04/24 04:55:27;;;;;;;15.30;10.73;;;6.90;1.00;;;;;;5066909;28;20469;-58
2021/04/24 04:57:53;;;;;;;16.93;10.43;;;7.00;1.00;;;;;;5069986;28;20477;-59
2021/04/24 05:00:21;;;;;;;13.30;8.73;;;7.00;1.00;;;;;;5072753;28;20957;-57
2021/04/24 05:02:47;;;;;;;13.00;9.40;;;7.00;1.00;;;;;;5069767;28;20449;-60
2021/04/24 05:05:15;;;;;;;14.13;9.63;;;6.90;1.00;;;;;;5070602;28;20446;-58
2021/04/24 05:07:42;;;;;;;13.53;9.87;;;7.00;1.00;;;;;;5070992;28;21038;-58
2021/04/24 05:10:08;;;;;;;13.03;9.07;;;7.10;1.00;;;;;;5069823;28;20441;-58
2021/04/24 05:12:34;;;;;;;10.27;9.20;;;7.40;1.00;;;;;;5070919;28;20471;-58
2021/04/24 05:15:00;;;;;;;19.90;11.93;;;7.40;1.00;;;;;;5070709;28;20529;-59
2021/04/24 05:17:25;;;;;;;15.00;11.17;;;7.50;1.00;;;;;;5070664;28;20205;-59
2021/04/24 05:19:51;;;;;;;15.20;10.97;;;7.60;1.00;;;;;;5070357;28;20187;-58
2021/04/24 05:22:17;;;;;;;14.30;9.20;;;7.60;1.00;;;;;;5075556;28;20183;-58
2021/04/24 05:24:42;;;;;;;16.33;9.77;;;7.70;1.00;;;;;;5068838;28;20179;-59
2021/04/24 05:27:08;;;;;;;17.73;12.10;;;7.80;1.00;;;;;;5070416;28;20635;-60
2021/04/24 05:29:33;;;;;;;14.67;10.03;;;7.90;1.00;;;;;;5084317;28;20725;-58
2021/04/24 05:31:59;;;;;;;12.33;9.50;;;7.90;1.00;;;;;;5070277;28;20267;-59
2021/04/24 05:34:24;;;;;;;10.70;9.60;;;8.10;1.00;;;;;;5068798;28;20701;-59
2021/04/24 05:36:50;;;;;;;17.73;9.40;;;8.10;1.00;;;;;;5047681;28;20211;-57
2021/04/24 05:39:16;;;;;;;14.43;10.53;;;8.10;1.00;;;;;;5066910;28;20585;-59
2021/04/24 05:41:41;;;;;;;17.57;9.87;;;8.20;1.00;;;;;;5069076;28;20196;-58
2021/04/24 05:44:07;;;;;;;11.37;9.43;;;8.80;1.00;;;;;;5068911;28;20664;-59
2021/04/24 05:46:33;;;;;;;16.90;10.53;;;8.50;1.00;;;;;;5068685;28;20653;-59
2021/04/24 05:48:59;;;;;;;12.50;9.57;;;8.50;1.00;;;;;;5070174;28;20850;-58
2021/04/24 05:51:25;;;;;;;12.47;9.40;;;8.60;1.00;;;;;;5069942;28;20445;-59
2021/04/24 05:53:52;;;;;;;11.53;9.60;;;8.60;1.00;;;;;;5070450;28;20546;-58
2021/04/24 05:56:19;;;;;;;15.20;9.57;;;8.70;1.00;;;;;;5069948;28;20466;-60
2021/04/24 05:58:46;;;;;;;11.00;9.23;;;8.60;1.00;;;;;;5068777;28;20434;-59
2021/04/24 06:01:12;;;;;;;13.70;10.23;;;8.40;1.00;;;;;;5068518;28;20906;-58
2021/04/24 06:03:37;;;;;;;11.93;9.20;;;8.40;1.00;;;;;;5068511;28;20530;-58
2021/04/24 06:06:03;;;;;;;15.50;11.00;;;8.50;1.00;;;;;;5070004;28;20244;-58
2021/04/24 06:08:29;;;;;;;13.60;9.97;;;8.70;1.00;;;;;;5069372;28;20211;-59
2021/04/24 06:10:54;;;;;;;10.63;9.20;;;8.80;1.00;;;;;;5067772;28;20447;-60
2021/04/24 06:13:20;;;;;;;13.13;8.97;;;9.00;1.00;;;;;;5068459;28;20204;-59
2021/04/24 06:15:46;;;;;;;10.90;9.80;;;9.30;1.00;;;;;;5067259;28;20206;-59
2021/04/24 06:18:11;;;;;;;11.20;7.97;;;9.50;1.00;;;;;;5068406;28;20194;-59
2021/04/24 06:20:37;;;;;;;12.30;6.23;;;9.50;1.00;;;;;;5064049;28;20240;-60
2021/04/24 06:23:03;;;;;;;13.17;6.10;;;9.60;1.00;;;;;;5068943;28;20184;-58
2021/04/24 06:25:29;;;;;;;14.67;6.10;;;9.40;1.00;;;;;;5067717;28;20465;-59
2021/04/24 06:27:54;;;;;;;8.50;5.27;;;9.30;1.00;;;;;;5068925;28;20232;-59
2021/04/24 06:30:21;;;;;;;10.07;6.30;;;9.10;1.00;;;;;;5068135;28;20189;-60
2021/04/24 06:32:49;;;;;;;6.53;5.77;;;9.00;1.00;;;;;;5065064;28;20241;-61
2021/04/24 06:35:16;;;;;;;14.90;7.07;;;9.10;1.00;;;;;;5068959;28;20481;-59
2021/04/24 06:37:41;;;;;;;8.23;5.33;;;9.30;1.00;;;;;;5069990;28;20446;-60
2021/04/24 06:40:10;;;;;;;11.00;5.63;;;9.20;1.00;;;;;;5069865;28;20443;-58
2021/04/24 06:42:36;;;;;;;14.77;6.60;;;9.10;1.00;;;;;;5069829;28;20176;-58
2021/04/24 06:45:04;;;;;;;12.00;5.70;;;9.10;1.00;;;;;;5068038;28;20453;-58
2021/04/24 06:47:30;;;;;;;11.27;5.73;;;9.20;1.00;;;;;;5072088;28;20538;-61
2021/04/24 06:49:55;;;;;;;10.67;6.50;;;9.40;1.00;;;;;;5073149;28;20976;-59
2021/04/24 06:52:21;;;;;;;12.37;5.70;;;9.60;1.00;;;;;;5070386;28;20223;-61
2021/04/24 06:54:46;;;;;;;15.37;6.80;;;9.70;1.00;;;;;;5075103;28;20186;-60
2021/04/24 06:57:12;;;;;;;10.90;6.97;;;9.70;1.00;;;;;;5093224;28;20303;-59
2021/04/24 06:59:40;;;;;;;12.40;7.23;;;9.70;1.00;;;;;;5093591;28;20176;-58
2021/04/24 07:02:08;;;;;;;10.30;5.40;;;10.00;1.00;;;;;;5076291;28;20485;-58
2021/04/24 07:04:33;;;;;;;13.37;6.30;;;10.10;1.00;;;;;;5087908;28;20819;-59
2021/04/24 07:06:59;;;;;;;8.23;6.60;;;10.20;1.00;;;;;;5084290;28;20444;-59
2021/04/24 07:09:25;;;;;;;10.60;6.47;;;10.40;1.00;;;;;;5087059;28;20197;-59
2021/04/24 07:11:50;;;;;;;13.17;6.53;;;10.40;1.00;;;;;;5091790;28;20775;-59
2021/04/24 07:14:16;;;;;;;7.03;5.33;;;;;;;;;;5087742;28;20563;-58
2021/04/24 07:16:42;;;;;;;10.43;6.10;;;10.60;1.00;;;;;;5083587;28;20275;-57
2021/04/24 07:19:08;;;;;;;13.20;6.90;;;10.70;1.00;;;;;;5081971;28;20443;-60
2021/04/24 07:21:33;;;;;;;8.80;5.70;;;10.60;1.00;;;;;;5082104;28;20732;-59
2021/04/24 07:23:59;;;;;;;13.70;6.57;;;10.60;1.00;;;;;;5083325;28;20180;-58
2021/04/24 07:26:24;;;;;;;11.80;6.27;;;10.90;1.00;;;;;;5074389;28;20186;-59
2021/04/24 07:28:50;;;;;;;10.50;6.80;;;;;;;;;;5084258;28;20665;-59
2021/04/24 07:31:16;;;;;;;8.40;5.27;;;11.10;1.00;;;;;;5089207;28;20196;-60
2021/04/24 07:33:43;;;;;;;12.27;7.00;;;11.10;1.00;;;;;;5078179;28;20441;-57
2021/04/24 07:36:09;;;;;;;9.10;5.70;;;10.90;1.00;;;;;;5083449;28;20301;-58
2021/04/24 07:38:35;;;;;;;15.13;6.90;;;10.90;1.00;;;;;;5084138;28;21020;-59
2021/04/24 07:41:00;;;;;;;12.00;6.33;;;11.00;1.00;;;;;;5085221;28;20185;-59
2021/04/24 07:43:26;;;;;;;8.73;6.50;;;11.00;1.00;;;;;;5076502;28;20197;-58
2021/04/24 07:45:52;;;;;;;11.13;6.90;;;10.90;1.00;;;;;;5071662;28;20191;-59
2021/04/24 07:48:18;;;;;;;13.30;6.40;;;11.00;1.00;;;;;;5078456;28;20191;-58
2021/04/24 07:50:45;;;;;;;8.43;6.07;;;11.30;1.00;;;;;;5075643;28;20191;-58
2021/04/24 07:53:11;;;;;;;9.20;6.10;;;11.50;1.00;;;;;;5075615;28;20450;-58
2021/04/24 07:55:36;;;;;;;7.80;5.47;;;11.50;1.00;;;;;;5075510;28;20457;-59
2021/04/24 07:58:02;;;;;;;13.47;7.60;;;11.70;1.00;;;;;;5073060;28;20195;-57
2021/04/24 08:00:27;;;;;;;11.30;6.93;;;11.80;1.00;;;;;;5080278;28;20214;-57
2021/04/24 08:02:53;;;;;;;9.23;7.30;;;11.80;1.00;;;;;;5075993;28;20198;-58
2021/04/24 08:05:19;;;;;;;11.70;7.40;;;11.10;1.00;;;;;;5070944;28;20182;-58
2021/04/24 08:07:46;;;;;;;14.93;7.07;;;11.50;1.00;;;;;;5088194;28;20186;-58
2021/04/24 08:10:12;;;;;;;12.27;7.50;;;11.40;1.00;;;;;;5069161;28;20452;-59
2021/04/24 08:12:38;;;;;;;13.37;6.47;;;11.50;1.00;;;;;;5071536;28;20437;-58
2021/04/24 08:15:09;;;;;;;13.43;6.90;;;11.40;1.00;;;;;;5071057;28;20807;-58
2021/04/24 08:17:34;;;;;;;9.47;6.53;;;11.50;1.00;;;;;;5079703;28;20210;-59
2021/04/24 08:20:00;;;;;;;13.60;6.50;;;11.60;1.00;;;;;;5077718;28;20456;-58
2021/04/24 08:22:26;;;;;;;10.73;6.87;;;11.80;1.00;;;;;;5083213;28;20177;-59
2021/04/24 08:24:52;;;;;;;10.60;6.67;;;12.10;1.00;;;;;;5084759;28;20439;-61
2021/04/24 08:27:18;;;;;;;10.43;6.80;;;11.90;1.00;;;;;;5088047;28;20456;-60
2021/04/24 08:29:44;;;;;;;13.03;6.47;;;11.90;1.00;;;;;;5075672;28;20523;-57
2021/04/24 08:32:09;;;;;;;10.47;7.07;;;12.30;1.00;;;;;;5071429;28;20541;-60
2021/04/24 08:34:35;;;;;;;8.50;5.50;;;12.60;1.00;;;;;;5077802;28;20191;-59
2021/04/24 08:37:01;;;;;;;11.20;7.10;;;12.70;1.00;;;;;;5073939;28;20237;-58
2021/04/24 08:39:27;;;;;;;14.70;6.40;;;12.90;1.00;;;;;;5070325;28;20664;-60
2021/04/24 08:41:52;;;;;;;10.07;6.17;;;12.90;1.00;;;;;;5071121;28;20552;-60
2021/04/24 08:44:18;;;;;;;9.90;6.90;;;13.00;1.00;;;;;;5072053;28;20467;-59
2021/04/24 08:46:51;;;;;;;9.10;6.30;;;12.40;1.00;;;;;;5070229;28;20751;-58
2021/04/24 08:49:22;;;;;;;9.27;5.83;;;12.40;1.00;;;;;;5071108;28;20444;-57
2021/04/24 08:51:48;;;;;;;7.93;5.10;;;12.30;1.00;;;;;;5070800;28;20942;-59
2021/04/24 08:54:14;;;;;;;13.53;6.10;;;12.20;1.00;;;;;;5070287;28;20469;-58
2021/04/24 08:56:40;;;;;;;11.53;6.00;;;12.20;1.00;;;;;;5069932;28;20465;-59
2021/04/24 08:59:06;;;;;;;15.23;7.67;;;12.10;1.00;;;;;;5070366;28;20183;-58
2021/04/24 09:01:32;;;;;;;12.53;5.47;;;12.10;1.00;;;;;;5070955;28;20481;-59
2021/04/24 09:03:59;;;;;;;10.23;5.17;;;12.40;1.00;;;;;;5069184;28;20239;-60
2021/04/24 09:06:25;;;;;;;8.23;6.20;;;12.40;1.00;;;;;;5077116;28;20502;-59
2021/04/24 09:08:57;;;;;;;11.33;5.53;;;12.90;1.00;;;;;;5088274;28;20443;-59
2021/04/24 09:11:23;;;;;;;8.60;6.07;;;13.10;1.00;;;;;;5067790;28;20450;-60
2021/04/24 09:14:04;;;;;;;10.80;5.40;;;12.90;1.00;;;;;;5086545;28;20433;-59
2021/04/24 09:16:29;;;;;;;14.00;5.83;;;12.90;1.00;;;;;;5069616;28;20965;-58
2021/04/24 09:18:56;;;;;;;13.90;6.20;;;12.90;1.00;;;;;;5090866;28;20523;-59
2021/04/24 09:21:25;;;;;;;9.37;4.97;;;12.70;1.00;;;;;;5078431;28;20179;-59
2021/04/24 09:23:51;;;;;;;8.67;5.10;;;12.80;1.00;;;;;;5070446;28;20472;-58
2021/04/24 09:26:24;;;;;;;8.37;5.33;;;13.10;1.00;;;;;;5074743;28;21197;-59
2021/04/24 09:29:00;;;;;;;8.97;4.97;;;13.30;1.00;;;;;;5082150;28;20536;-54
2021/04/24 09:31:28;;;;;;;11.70;6.10;;;13.60;1.00;;;;;;5078008;28;20527;-60
2021/04/24 09:33:59;;;;;;;7.93;5.00;;;13.50;1.00;;;;;;5083624;28;20497;-59
2021/04/24 09:36:33;;;;;;;9.00;4.67;;;13.50;1.00;;;;;;5078683;28;20588;-58
2021/04/24 09:39:03;;;;;;;8.50;4.67;;;13.50;1.00;;;;;;5074510;28;20440;-59
2021/04/24 09:41:33;;;;;;;10.87;5.60;;;13.10;1.00;;;;;;5070679;28;20456;-59
2021/04/24 09:44:10;;;;;;;5.37;4.43;;;13.30;1.00;;;;;;5090492;28;20918;-61
2021/04/24 09:46:52;;;;;;;8.63;4.47;;;13.90;1.00;;;;;;5068307;28;20460;-59
2021/04/24 09:49:27;;;;;;;9.10;5.97;;;14.20;1.00;;;;;;5071568;28;20445;-59
2021/04/24 09:51:55;;;;;;;9.63;4.67;;;13.70;1.00;;;;;;5078302;28;20498;-59
2021/04/24 09:54:47;;;;;;;7.43;4.73;;;13.50;1.00;;;;;;5075683;28;20428;-60
2021/04/24 09:57:20;;;;;;;6.57;4.60;;;13.40;1.00;;;;;;5068700;28;21079;-58
2021/04/24 10:00:00;;;;;;;6.53;4.10;;;13.50;1.00;;;;;;5070844;28;20437;-59
2021/04/24 10:02:41;;;;;;;9.33;4.97;;;13.70;1.00;;;;;;5070132;28;20452;-58
2021/04/24 10:05:21;;;;;;;9.00;5.23;;;13.50;1.00;;;;;;5071919;28;20767;-59
2021/04/24 10:07:59;;;;;;;8.43;4.97;;;13.40;1.00;;;;;;5075952;28;20952;-58
2021/04/24 10:10:31;;;;;;;9.20;5.07;;;13.60;1.00;;;;;;5078626;28;20464;-59
2021/04/24 10:12:59;;;;;;;6.80;4.60;;;13.60;1.00;;;;;;5087292;28;20444;-60
2021/04/24 10:15:42;;;;;;;10.10;5.23;;;13.40;1.00;;;;;;5079679;28;20495;-59
2021/04/24 10:18:10;;;;;;;7.47;5.23;;;13.40;1.00;;;;;;5067058;28;20456;-59
2021/04/24 10:20:37;;;;;;;8.23;4.73;;;13.50;1.00;;;;;;5068703;28;20521;-59
2021/04/24 10:23:07;;;;;;;7.03;5.30;;;13.40;1.00;;;;;;5086527;28;20438;-59
2021/04/24 10:25:34;;;;;;;9.20;5.70;;;13.50;1.00;;;;;;5086435;28;20464;-58
2021/04/24 10:28:00;;;;;;;8.40;5.00;;;13.60;1.00;;;;;;5073399;28;20493;-59
2021/04/24 10:30:26;;;;;;;7.30;5.00;;;13.70;1.00;;;;;;5073322;28;20537;-60
2021/04/24 10:32:53;;;;;;;8.43;5.87;;;14.10;1.00;;;;;;5074914;28;20190;-60
2021/04/24 10:35:19;;;;;;;9.07;5.70;;;14.30;1.00;;;;;;5081183;28;20467;-59
2021/04/24 10:37:47;;;;;;;8.03;5.20;;;14.40;1.00;;;;;;5084999;28;20934;-59
2021/04/24 10:40:14;;;;;;;7.80;5.17;;;14.70;1.00;;;;;;5075292;28;20449;-59
2021/04/24 10:42:43;;;;;;;8.10;4.90;;;14.60;1.00;;;;;;5081306;28;20436;-60
2021/04/24 10:45:10;;;;;;;17.20;6.70;;;15.00;1.00;;;;;;5079420;28;20429;-59
2021/04/24 10:47:41;;;;;;;6.97;5.67;;;14.70;1.00;;;;;;5075802;28;20455;-59
2021/04/24 10:50:11;;;;;;;9.80;4.70;;;14.70;1.00;;;;;;5087479;28;21011;-58
2021/04/24 10:52:38;;;;;;;8.63;4.60;;;14.50;1.00;;;;;;5085005;28;20787;-59
2021/04/24 10:55:13;;;;;;;10.20;5.03;;;14.30;1.00;;;;;;5073428;28;20483;-60
2021/04/24 10:57:39;;;;;;;8.97;6.40;;;14.50;1.00;;;;;;5078469;28;20492;-59
2021/04/24 11:00:06;;;;;;;8.00;5.33;;;14.30;1.00;;;;;;5079162;28;20479;-60
2021/04/24 11:02:59;;;;;;;7.97;5.23;;;14.30;1.00;;;;;;5086852;28;20171;-60
2021/04/24 11:05:30;;;;;;;10.63;5.77;;;14.60;1.00;;;;;;5074388;28;20477;-59
2021/04/24 11:08:20;;;;;;;8.77;5.03;;;14.50;1.00;;;;;;5070569;28;20984;-60
2021/04/24 11:10:47;;;;;;;10.43;5.97;;;14.50;1.00;;;;;;5074235;28;20430;-59
2021/04/24 11:13:15;;;;;;;9.17;5.43;;;14.70;1.00;;;;;;5081464;28;20457;-59
2021/04/24 11:15:42;;;;;;;8.50;5.50;;;14.20;1.00;;;;;;5080790;28;21026;-60
2021/04/24 11:18:10;;;;;;;8.37;5.20;;;14.50;1.00;;;;;;5077866;28;20437;-59
2021/04/24 11:21:04;;;;;;;8.90;6.67;;;15.00;1.00;;;;;;5087894;28;20472;-60
2021/04/24 11:23:29;;;;;;;10.37;6.57;;;15.00;1.00;;;;;;5083275;28;20954;-60
2021/04/24 11:26:03;;;;;;;10.27;6.20;;;14.70;1.00;;;;;;5079155;28;20547;-60
2021/04/24 11:28:29;;;;;;;8.80;6.57;;;14.70;1.00;;;;;;5075990;28;20230;-59
2021/04/24 11:30:56;;;;;;;6.70;5.73;;;14.50;1.00;;;;;;5086223;28;20457;-60
2021/04/24 11:33:44;;;;;;;10.10;6.10;;;14.40;1.00;;;;;;5089884;28;20440;-60
2021/04/24 11:38:56;;;;;;;10.07;6.40;;;14.40;1.00;;;;;;5077483;28;20440;-58
2021/04/24 11:41:42;;;;;;;9.37;6.20;;;14.40;1.00;;;;;;5078307;28;20430;-59
2021/04/24 11:44:17;;;;;;;9.70;6.73;;;14.30;1.00;;;;;;5086667;28;20988;-61
2021/04/24 11:46:44;;;;;;;8.17;5.90;;;14.40;1.00;;;;;;5075225;28;20878;-59
2021/04/24 11:49:20;;;;;;;11.23;6.57;;;14.40;1.00;;;;;;5083952;28;20452;-58
2021/04/24 11:52:07;;;;;;;9.20;6.07;;;14.30;1.00;;;;;;5074925;28;20445;-60
2021/04/24 11:54:44;;;;;;;10.10;6.47;;;14.10;1.00;;;;;;5079045;28;20458;-59
2021/04/24 11:57:18;;;;;;;8.60;6.17;;;13.90;1.00;;;;;;5070671;28;20464;-59
2021/04/24 11:59:44;;;;;;;9.53;6.20;;;13.70;1.00;;;;;;5077566;28;20646;-61
2021/04/24 12:02:20;;;;;;;7.60;5.80;;;13.90;1.00;;;;;;5084677;28;20440;-60
2021/04/24 12:04:55;;;;;;;9.17;5.63;;;14.40;1.00;;;;;;5077802;28;20440;-61
2021/04/24 12:07:21;;;;;;;10.77;7.23;;;14.80;1.00;;;;;;5077892;28;20437;-60
2021/04/24 12:09:55;;;;;;;10.63;6.20;;;14.80;1.00;;;;;;5084853;28;20460;-60
2021/04/24 12:12:41;;;;;;;9.80;6.30;;;14.50;1.00;;;;;;5080900;28;20480;-60
2021/04/24 12:15:08;;;;;;;10.13;6.50;;;14.10;1.00;;;;;;5082391;28;20444;-60
2021/04/24 12:17:34;;;;;;;13.43;6.70;;;14.30;1.00;;;;;;5079886;28;20958;-62
2021/04/24 12:20:00;;;;;;;12.87;6.03;;;14.20;1.00;;;;;;5071478;28;20434;-60
2021/04/24 12:22:26;;;;;;;9.17;6.07;;;14.10;1.00;;;;;;5083673;28;20436;-60
2021/04/24 12:25:02;;;;;;;9.57;5.50;;;14.20;1.00;;;;;;5080633;28;20435;-62
2021/04/24 12:27:38;;;;;;;11.77;6.67;;;14.60;1.00;;;;;;5074324;28;20186;-61
2021/04/24 12:30:08;;;;;;;9.40;6.87;;;14.60;1.00;;;;;;5068142;28;20640;-60
2021/04/24 12:32:39;;;;;;;9.63;6.87;;;14.20;1.00;;;;;;5075873;28;20437;-60
2021/04/24 12:35:14;;;;;;;9.03;7.20;;;14.10;1.00;;;;;;5073686;28;20523;-61
2021/04/24 12:37:41;;;;;;;15.03;7.70;;;14.10;1.00;;;;;;5093648;28;20569;-61
2021/04/24 12:40:15;;;;;;;7.03;5.60;;;14.20;1.00;;;;;;5065362;28;20437;-59
2021/04/24 12:42:41;;;;;;;8.60;6.80;;;14.20;1.00;;;;;;5077313;28;20462;-61
2021/04/24 12:45:28;;;;;;;12.63;7.40;;;14.40;1.00;;;;;;5056705;28;20950;-61
2021/04/24 12:47:54;;;;;;;12.90;7.30;;;14.80;1.00;;;;;;5067348;28;20840;-61
2021/04/24 12:50:29;;;;;;;8.73;7.30;;;14.90;1.00;;;;;;5079820;28;20810;-61
2021/04/24 12:52:58;;;;;;;10.70;7.63;;;14.20;1.00;;;;;;5084717;28;20445;-61
2021/04/24 12:55:36;;;;;;;9.27;6.70;;;14.20;1.00;;;;;;5090507;28;20433;-61
2021/04/24 12:58:08;;;;;;;11.23;7.23;;;14.10;1.00;;;;;;5073044;28;20449;-61
2021/04/24 13:00:39;;;;;;;10.03;7.20;;;14.10;1.00;;;;;;5075708;28;20450;-61